createdAt,value
2023-05-24T00:00:00.653Z,5.8
2023-05-24T00:05:01.254Z,3.6
2023-05-24T00:10:01.086Z,5.8
2023-05-24T00:15:00.542Z,8.6
2023-05-24T00:20:00.661Z,2.2
2023-05-24T00:25:00.433Z,7.2
2023-05-24T00:30:00.519Z,14.0
2023-05-24T00:35:00.419Z,3.2
2023-05-24T00:40:00.502Z,4.0
2023-05-24T00:45:00.479Z,3.6
2023-05-24T00:50:00.461Z,5.0
2023-05-24T00:55:00.473Z,4.3
2023-05-24T01:00:00.835Z,2.5
2023-05-24T01:05:00.410Z,9.4
2023-05-24T01:10:00.436Z,7.2
2023-05-24T01:15:00.481Z,10.1
2023-05-24T01:20:00.872Z,5.8
2023-05-24T01:25:00.441Z,4.7
2023-05-24T01:30:00.498Z,4.7
2023-05-24T01:35:00.515Z,5.0
2023-05-24T01:40:00.703Z,3.6
2023-05-24T01:45:00.488Z,4.0
2023-05-24T01:50:00.481Z,5.8
2023-05-24T01:55:00.376Z,8.6
2023-05-24T02:00:00.833Z,7.9
2023-05-24T02:05:00.534Z,5.0
2023-05-24T02:10:00.499Z,4.0
2023-05-24T02:15:00.450Z,2.5
2023-05-24T02:20:00.805Z,3.6
2023-05-24T02:25:00.392Z,4.7
2023-05-24T02:30:00.446Z,5.0
2023-05-24T02:35:00.403Z,5.0
2023-05-24T02:40:00.462Z,15.8
2023-05-24T02:45:00.549Z,9.0
2023-05-24T02:50:00.441Z,6.1
2023-05-24T02:55:00.476Z,7.6
2023-05-24T03:00:00.612Z,7.6
2023-05-24T03:05:00.457Z,6.1
2023-05-24T03:10:00.550Z,5.0
2023-05-24T03:15:00.414Z,2.5
2023-05-24T03:20:00.727Z,5.8
2023-05-24T03:25:00.415Z,7.9
2023-05-24T03:30:00.457Z,3.2
2023-05-24T03:35:00.508Z,5.0
2023-05-24T03:40:00.488Z,5.4
2023-05-24T03:45:00.455Z,5.4
2023-05-24T03:50:00.473Z,4.7
2023-05-24T03:55:00.414Z,5.0
2023-05-24T04:00:00.584Z,3.6
2023-05-24T04:05:00.393Z,4.3
2023-05-24T04:10:00.470Z,4.0
2023-05-24T04:15:00.537Z,5.8
2023-05-24T04:20:00.515Z,10.1
2023-05-24T04:25:00.762Z,3.6
2023-05-24T04:30:00.547Z,5.0
2023-05-24T04:35:00.452Z,10.8
2023-05-24T04:40:00.487Z,11.5
2023-05-24T04:45:00.466Z,5.4
2023-05-24T04:50:00.480Z,8.6
2023-05-24T04:55:00.504Z,5.8
2023-05-24T05:00:00.467Z,12.6
2023-05-24T05:05:00.384Z,11.2
2023-05-24T05:10:00.537Z,6.1
2023-05-24T05:15:00.471Z,3.2
2023-05-24T05:20:01.048Z,5.0
2023-05-24T05:25:00.426Z,6.8
2023-05-24T05:30:00.521Z,7.2
2023-05-24T05:35:00.559Z,4.7
2023-05-24T05:40:00.482Z,6.8
2023-05-24T05:45:00.541Z,10.8
2023-05-24T05:50:00.474Z,7.9
2023-05-24T05:55:00.622Z,11.9
2023-05-24T06:00:00.461Z,9.7
2023-05-24T06:05:00.564Z,10.4
2023-05-24T06:10:00.756Z,7.2
2023-05-24T06:15:00.533Z,7.6
2023-05-24T06:20:00.969Z,10.4
2023-05-24T06:25:00.516Z,6.8
2023-05-24T06:30:00.675Z,8.6
2023-05-24T06:35:00.496Z,7.2
2023-05-24T06:40:00.563Z,4.7
2023-05-24T06:45:00.570Z,4.7
2023-05-24T06:50:00.536Z,7.6
2023-05-24T06:55:00.593Z,10.4
2023-05-24T07:00:00.559Z,3.2
2023-05-24T07:05:01.096Z,7.6
2023-05-24T07:10:00.437Z,6.1
2023-05-24T07:15:00.573Z,11.5
2023-05-24T07:20:00.602Z,14.8
2023-05-24T07:25:00.610Z,5.0
2023-05-24T07:30:00.521Z,10.8
2023-05-24T07:35:00.490Z,10.4
2023-05-24T07:40:00.515Z,8.6
2023-05-24T07:45:00.706Z,11.9
2023-05-24T07:50:00.641Z,11.2
2023-05-24T07:55:00.775Z,7.6
2023-05-24T08:00:00.700Z,5.0
2023-05-24T08:05:00.424Z,4.3
2023-05-24T08:10:00.975Z,6.1
2023-05-24T08:15:00.470Z,4.3
2023-05-24T08:20:00.736Z,7.2
2023-05-24T08:25:00.612Z,6.5
2023-05-24T08:30:00.569Z,10.8
2023-05-24T08:35:21.414Z,6.8
2023-05-24T08:40:00.727Z,6.5
2023-05-24T08:45:00.656Z,3.2
2023-05-24T08:50:00.497Z,10.8
2023-05-24T08:55:00.428Z,7.6
2023-05-24T09:00:00.737Z,19.4
2023-05-24T09:05:00.617Z,10.1
2023-05-24T09:10:00.536Z,7.2
2023-05-24T09:15:00.602Z,7.6
2023-05-24T09:20:01.220Z,10.1
2023-05-24T09:25:00.659Z,9.4
2023-05-24T09:30:00.689Z,7.2
2023-05-24T09:35:00.557Z,14.4
2023-05-24T09:40:00.999Z,8.3
2023-05-24T09:45:00.732Z,10.1
2023-05-24T09:50:00.809Z,10.1
2023-05-24T09:55:00.459Z,7.2
2023-05-24T10:00:00.662Z,11.9
2023-05-24T10:05:01.209Z,3.2
2023-05-24T10:10:00.660Z,3.2
2023-05-24T10:15:00.987Z,3.2
2023-05-24T10:20:00.758Z,6.1
2023-05-24T10:25:00.467Z,12.2
2023-05-24T10:30:00.527Z,10.4
2023-05-24T10:35:00.557Z,13.0
2023-05-24T10:40:00.670Z,6.5
2023-05-24T10:45:00.473Z,2.5
2023-05-24T10:50:00.788Z,8.6
2023-05-24T10:55:05.813Z,2.2
2023-05-24T11:00:00.607Z,6.1
2023-05-24T11:05:00.686Z,1.8
2023-05-24T11:10:00.624Z,7.6
2023-05-24T11:15:00.560Z,5.4
2023-05-24T11:20:00.686Z,2.9
2023-05-24T11:25:00.465Z,7.2
2023-05-24T11:30:00.754Z,7.9
2023-05-24T11:35:00.685Z,4.3
2023-05-24T11:40:00.708Z,8.6
2023-05-24T11:45:00.562Z,14.4
2023-05-24T11:50:00.535Z,3.6
2023-05-24T11:55:00.675Z,4.3
2023-05-24T12:00:00.509Z,5.4
2023-05-24T12:05:01.038Z,5.0
2023-05-24T12:10:00.589Z,9.7
2023-05-24T12:15:00.479Z,7.2
2023-05-24T12:20:00.762Z,3.6
2023-05-24T12:25:00.490Z,9.4
2023-05-24T12:30:00.460Z,6.5
2023-05-24T12:35:00.698Z,7.9
2023-05-24T12:40:00.632Z,2.5
2023-05-24T12:45:00.737Z,5.4
2023-05-24T12:50:00.747Z,6.8
2023-05-24T12:55:00.681Z,5.8
2023-05-24T13:00:00.776Z,7.6
2023-05-24T13:05:00.656Z,10.1
2023-05-24T13:10:00.618Z,15.5
2023-05-24T13:15:00.723Z,14.8
2023-05-24T13:20:00.916Z,14.8
2023-05-24T13:25:00.837Z,11.9
2023-05-24T13:30:02.288Z,2.5
2023-05-24T13:35:00.748Z,6.8
2023-05-24T13:40:00.830Z,5.4
2023-05-24T13:45:00.751Z,6.5
2023-05-24T13:50:00.670Z,5.0
2023-05-24T13:55:00.660Z,9.4
2023-05-24T14:00:00.580Z,6.8
2023-05-24T14:05:26.409Z,5.0
2023-05-24T14:10:00.531Z,8.6
2023-05-24T14:15:00.738Z,11.2
2023-05-24T14:20:00.651Z,13.0
2023-05-24T14:25:00.673Z,8.3
2023-05-24T14:30:00.655Z,13.7
2023-05-24T14:35:00.652Z,9.0
2023-05-24T14:40:01.473Z,2.2
2023-05-24T14:45:00.740Z,5.0
2023-05-24T14:50:00.515Z,5.4
2023-05-24T14:55:00.582Z,2.2
2023-05-24T15:00:00.600Z,7.9
2023-05-24T15:05:00.467Z,2.2
2023-05-24T15:10:00.802Z,7.2
2023-05-24T15:15:00.509Z,2.9
2023-05-24T15:20:00.977Z,6.5
2023-05-24T15:25:00.581Z,14.4
2023-05-24T15:30:00.587Z,7.6
2023-05-24T15:35:00.816Z,4.7
2023-05-24T15:40:00.823Z,2.2
2023-05-24T15:45:00.580Z,3.2
2023-05-24T15:50:00.681Z,5.0
2023-05-24T15:55:00.772Z,4.3
2023-05-24T16:00:00.766Z,4.0
2023-05-24T16:05:00.657Z,2.2
2023-05-24T16:10:00.849Z,0.0
2023-05-24T16:15:00.539Z,3.6
2023-05-24T16:20:00.965Z,2.2
2023-05-24T16:25:00.631Z,0.0
2023-05-24T16:30:00.888Z,3.6
2023-05-24T16:35:00.435Z,2.5
2023-05-24T16:40:01.489Z,4.0
2023-05-24T16:45:00.629Z,5.8
2023-05-24T16:50:00.672Z,9.7
2023-05-24T16:55:02.410Z,10.8
2023-05-24T17:00:01.227Z,2.2
2023-05-24T17:05:00.830Z,4.3
2023-05-24T17:10:01.204Z,4.0
2023-05-24T17:15:00.584Z,3.6
2023-05-24T17:20:01.506Z,4.0
2023-05-24T17:25:00.667Z,3.2
2023-05-24T17:30:01.541Z,5.8
2023-05-24T17:35:01.448Z,4.7
2023-05-24T17:40:01.481Z,4.3
2023-05-24T17:45:00.620Z,2.5
2023-05-24T17:50:01.426Z,4.0
2023-05-24T17:55:00.663Z,5.4
2023-05-24T18:00:01.479Z,6.1
2023-05-24T18:05:00.820Z,2.5
2023-05-24T18:10:01.349Z,6.5
2023-05-24T18:15:01.604Z,2.5
2023-05-24T18:20:01.484Z,4.0
2023-05-24T18:25:00.476Z,2.5
2023-05-24T18:30:01.422Z,3.6
2023-05-24T18:35:01.211Z,1.8
2023-05-24T18:40:01.523Z,2.2
2023-05-24T18:45:00.846Z,0.0
2023-05-24T18:50:00.806Z,3.6
2023-05-24T18:55:00.737Z,4.3
2023-05-24T19:00:00.822Z,1.4
2023-05-24T19:05:00.774Z,0.0
2023-05-24T19:10:00.540Z,0.0
2023-05-24T19:15:00.583Z,0.0
2023-05-24T19:20:00.693Z,1.4
2023-05-24T19:25:00.819Z,1.8
2023-05-24T19:30:00.568Z,3.6
2023-05-24T19:35:00.634Z,1.4
2023-05-24T19:40:00.593Z,2.5
2023-05-24T19:45:00.614Z,1.8
2023-05-24T19:50:00.751Z,1.4
2023-05-24T19:55:00.464Z,4.0
2023-05-24T20:00:00.722Z,2.9
2023-05-24T20:05:00.676Z,2.2
2023-05-24T20:10:00.715Z,1.8
2023-05-24T20:15:00.801Z,1.4
2023-05-24T20:20:00.834Z,0.0
2023-05-24T20:25:00.477Z,1.8
2023-05-24T20:30:00.552Z,2.2
2023-05-24T20:35:00.578Z,0.0
2023-05-24T20:40:00.653Z,0.0
2023-05-24T20:45:00.563Z,0.0
2023-05-24T20:50:00.636Z,0.0
2023-05-24T20:55:00.553Z,0.0
2023-05-24T21:00:00.779Z,1.8
2023-05-24T21:05:00.588Z,1.8
2023-05-24T21:10:00.621Z,2.2
2023-05-24T21:15:00.562Z,2.2
2023-05-24T21:20:00.909Z,2.5
2023-05-24T21:25:00.529Z,0.0
2023-05-24T21:30:00.438Z,0.0
2023-05-24T21:35:00.372Z,0.0
2023-05-24T21:40:00.466Z,0.0
2023-05-24T21:45:00.457Z,0.0
2023-05-24T21:50:00.425Z,0.0
2023-05-24T21:55:00.334Z,0.0
2023-05-24T22:00:00.534Z,0.0
2023-05-24T22:05:00.430Z,0.0
2023-05-24T22:10:00.398Z,0.0
2023-05-24T22:15:00.339Z,0.0
2023-05-24T22:20:00.513Z,0.0
2023-05-24T22:25:00.392Z,0.0
2023-05-24T22:30:00.483Z,0.0
2023-05-24T22:35:00.520Z,0.0
2023-05-24T22:40:00.373Z,0.0
2023-05-24T22:45:00.425Z,0.0
2023-05-24T22:50:00.343Z,0.0
2023-05-24T22:55:00.326Z,0.0
2023-05-24T23:00:00.446Z,0.0
2023-05-24T23:05:00.904Z,0.0
2023-05-24T23:10:00.440Z,0.0
2023-05-24T23:15:00.422Z,0.0
2023-05-24T23:20:00.787Z,0.0
2023-05-24T23:25:00.412Z,0.0
2023-05-24T23:30:00.429Z,0.0
2023-05-24T23:35:00.400Z,0.0
2023-05-24T23:40:00.380Z,0.0
2023-05-24T23:45:00.354Z,0.0
2023-05-24T23:50:00.368Z,0.0
2023-05-24T23:55:00.317Z,0.0
